Time,TemperatureF,DewpointF,PressureIn,WindDirection,WindDirectionDegrees,WindSpeedMPH,WindSpeedGustMPH,Humidity,HourlyPrecipIn,Conditions,Clouds,dailyrainin,SoftwareType,DateUTC
2013-07-20 00:00:00,82.0,76.3,29.73,SW,225,0.0,1.0,83,0.00,,---,0.01,VWS V13.01,2013-07-20 04:00:00,
2013-07-20 00:01:00,82.0,76.3,29.73,SW,225,0.0,1.0,83,0.00,,---,0.01,VWS V13.01,2013-07-20 04:01:00,
2013-07-20 00:02:00,81.8,76.1,29.73,SW,225,0.0,0.0,83,0.00,,---,0.01,VWS V13.01,2013-07-20 04:02:00,
2013-07-20 00:07:00,81.6,75.6,29.73,West,277,2.0,6.0,82,0.00,,---,0.01,VWS V13.01,2013-07-20 04:07:00,
2013-07-20 00:12:00,81.4,74.6,29.73,NW,311,0.0,6.0,80,0.00,,---,0.01,VWS V13.01,2013-07-20 04:12:00,
2013-07-20 00:17:00,81.2,73.3,29.74,West,263,0.0,3.0,77,0.00,,---,0.01,VWS V13.01,2013-07-20 04:17:00,
2013-07-20 00:22:00,81.2,71.7,29.74,WNW,295,2.0,6.0,73,0.00,,---,0.01,VWS V13.01,2013-07-20 04:22:00,
2013-07-20 00:27:00,81.2,71.7,29.74,WNW,297,0.0,6.0,73,0.00,,---,0.01,VWS V13.01,2013-07-20 04:27:00,
2013-07-20 00:32:00,81.1,70.8,29.74,WNW,289,0.0,0.0,71,0.00,,---,0.01,VWS V13.01,2013-07-20 04:32:00,
2013-07-20 00:37:00,81.1,70.4,29.74,WNW,288,0.0,3.0,70,0.00,,---,0.01,VWS V13.01,2013-07-20 04:37:00,
2013-07-20 00:42:00,81.1,70.4,29.74,WNW,289,0.0,3.0,70,0.00,,---,0.01,VWS V13.01,2013-07-20 04:42:00,
2013-07-20 00:47:00,81.1,70.8,29.74,WNW,286,0.0,3.0,71,0.00,,---,0.00,VWS V13.01,2013-07-20 04:47:00,
2013-07-20 00:52:00,80.9,71.0,29.74,WNW,288,0.0,3.0,72,0.00,,---,0.00,VWS V13.01,2013-07-20 04:52:00,
2013-07-20 00:57:00,80.7,71.2,29.74,WNW,288,0.0,3.0,73,0.00,,---,0.00,VWS V13.01,2013-07-20 04:57:00,
2013-07-20 01:02:00,80.5,71.1,29.74,WNW,288,0.0,0.0,73,0.00,,---,0.00,VWS V13.01,2013-07-20 05:02:00,
2013-07-20 01:07:00,80.3,71.3,29.74,WNW,288,0.0,0.0,74,0.00,,---,0.00,VWS V13.01,2013-07-20 05:07:00,
2013-07-20 01:12:00,80.1,71.1,29.74,WNW,288,0.0,0.0,74,0.00,,---,0.00,VWS V13.01,2013-07-20 05:12:00,
2013-07-20 01:17:00,79.9,70.9,29.74,WNW,288,0.0,0.0,74,0.00,,---,0.00,VWS V13.01,2013-07-20 05:17:00,
2013-07-20 01:22:00,79.8,71.2,29.74,WNW,288,0.0,0.0,75,0.00,,---,0.00,VWS V13.01,2013-07-20 05:22:00,
2013-07-20 01:27:00,79.8,71.2,29.74,WNW,288,0.0,1.0,75,0.00,,---,0.00,VWS V13.01,2013-07-20 05:27:00,
2013-07-20 01:32:00,79.8,71.2,29.75,WNW,288,0.0,3.0,75,0.00,,---,0.00,VWS V13.01,2013-07-20 05:32:00,
2013-07-20 01:37:00,79.6,71.4,29.75,WNW,288,0.0,3.0,76,0.00,,---,0.00,VWS V13.01,2013-07-20 05:37:00,
2013-07-20 01:42:00,79.4,71.2,29.75,WNW,288,0.0,3.0,76,0.00,,---,0.00,VWS V13.01,2013-07-20 05:42:00,
2013-07-20 01:47:00,79.2,71.0,29.75,WNW,288,0.0,0.0,76,0.00,,---,0.00,VWS V13.01,2013-07-20 05:47:00,
2013-07-20 01:52:00,79.2,71.0,29.75,WNW,288,0.0,0.0,76,0.00,,---,0.00,VWS V13.01,2013-07-20 05:52:00,
2013-07-20 01:57:00,79.2,71.0,29.75,WNW,288,0.0,3.0,76,0.00,,---,0.00,VWS V13.01,2013-07-20 05:57:00,
2013-07-20 02:02:00,79.0,70.8,29.74,WNW,288,0.0,0.0,76,0.00,,---,0.00,VWS V13.01,2013-07-20 06:02:00,
2013-07-20 02:07:00,78.8,70.6,29.74,WNW,288,0.0,0.0,76,0.00,,---,0.00,VWS V13.01,2013-07-20 06:07:00,
2013-07-20 02:12:00,78.8,70.6,29.74,WNW,288,0.0,4.0,76,0.00,,---,0.00,VWS V13.01,2013-07-20 06:12:00,
2013-07-20 02:17:00,78.6,70.0,29.74,WNW,288,0.0,0.0,75,0.00,,---,0.00,VWS V13.01,2013-07-20 06:17:00,
2013-07-20 02:22:00,78.6,70.4,29.74,WNW,288,0.0,0.0,76,0.00,,---,0.00,VWS V13.01,2013-07-20 06:22:00,
2013-07-20 02:27:00,78.5,70.3,29.74,WNW,288,0.0,0.0,76,0.00,,---,0.00,VWS V13.01,2013-07-20 06:27:00,
2013-07-20 02:32:00,78.3,70.1,29.73,WNW,288,0.0,0.0,76,0.00,,---,0.00,VWS V13.01,2013-07-20 06:32:00,
2013-07-20 02:37:00,78.1,70.3,29.73,WNW,288,0.0,0.0,77,0.00,,---,0.00,VWS V13.01,2013-07-20 06:37:00,
2013-07-20 02:41:00,77.9,69.7,29.73,WNW,288,0.0,0.0,76,0.00,,---,0.00,VWS V13.01,2013-07-20 06:41:00,
2013-07-20 02:46:00,77.9,69.7,29.73,WNW,288,0.0,0.0,76,0.00,,---,0.00,VWS V13.01,2013-07-20 06:46:00,
2013-07-20 02:51:00,77.9,69.7,29.73,WNW,288,0.0,0.0,76,0.00,,---,0.00,VWS V13.01,2013-07-20 06:51:00,
2013-07-20 02:56:00,77.9,69.7,29.73,WNW,288,0.0,3.0,76,0.00,,---,0.00,VWS V13.01,2013-07-20 06:56:00,
2013-07-20 03:01:00,77.7,69.5,29.72,WNW,288,0.0,0.0,76,0.00,,---,0.00,VWS V13.01,2013-07-20 07:01:00,
2013-07-20 03:06:00,77.6,69.4,29.72,WNW,288,0.0,0.0,76,0.00,,---,0.00,VWS V13.01,2013-07-20 07:06:00,
2013-07-20 03:11:00,77.6,69.4,29.72,WNW,288,0.0,0.0,76,0.00,,---,0.00,VWS V13.01,2013-07-20 07:11:00,
2013-07-20 03:16:00,77.4,69.2,29.72,WNW,288,0.0,0.0,76,0.00,,---,0.00,VWS V13.01,2013-07-20 07:16:00,
2013-07-20 03:21:00,77.2,69.1,29.72,WNW,288,0.0,0.0,76,0.00,,---,0.00,VWS V13.01,2013-07-20 07:21:00,
2013-07-20 03:26:00,77.2,69.4,29.72,WNW,288,0.0,0.0,77,0.00,,---,0.00,VWS V13.01,2013-07-20 07:26:00,
2013-07-20 03:31:00,77.0,69.2,29.71,WNW,288,0.0,0.0,77,0.00,,---,0.00,VWS V13.01,2013-07-20 07:31:00,
2013-07-20 03:36:00,76.8,69.1,29.71,WNW,288,0.0,0.0,77,0.00,,---,0.00,VWS V13.01,2013-07-20 07:36:00,
2013-07-20 03:41:00,76.7,68.9,29.71,WNW,288,0.0,0.0,77,0.00,,---,0.00,VWS V13.01,2013-07-20 07:41:00,
2013-07-20 03:46:00,76.7,69.3,29.71,WNW,288,0.0,0.0,78,0.00,,---,0.00,VWS V13.01,2013-07-20 07:46:00,
2013-07-20 03:51:00,76.5,69.1,29.71,WNW,288,0.0,0.0,78,0.00,,---,0.00,VWS V13.01,2013-07-20 07:51:00,
2013-07-20 03:56:00,76.3,69.3,29.71,WNW,288,0.0,0.0,79,0.00,,---,0.00,VWS V13.01,2013-07-20 07:56:00,
2013-07-20 04:01:00,76.3,69.3,29.70,WNW,288,0.0,0.0,79,0.00,,---,0.00,VWS V13.01,2013-07-20 08:01:00,
2013-07-20 04:06:00,76.1,69.5,29.70,WNW,288,0.0,0.0,80,0.00,,---,0.00,VWS V13.01,2013-07-20 08:06:00,
2013-07-20 04:11:00,76.1,69.5,29.70,WNW,288,0.0,0.0,80,0.00,,---,0.00,VWS V13.01,2013-07-20 08:11:00,
2013-07-20 04:16:00,76.0,69.4,29.70,WNW,288,0.0,0.0,80,0.00,,---,0.00,VWS V13.01,2013-07-20 08:16:00,
2013-07-20 04:21:00,76.0,69.4,29.70,WNW,288,0.0,0.0,80,0.00,,---,0.00,VWS V13.01,2013-07-20 08:21:00,
2013-07-20 04:26:00,75.8,69.2,29.70,WNW,288,0.0,0.0,80,0.00,,---,0.00,VWS V13.01,2013-07-20 08:26:00,
2013-07-20 04:31:00,75.8,69.2,29.69,WNW,288,0.0,0.0,80,0.00,,---,0.00,VWS V13.01,2013-07-20 08:31:00,
2013-07-20 04:36:00,75.8,69.6,29.69,WNW,288,0.0,0.0,81,0.00,,---,0.00,VWS V13.01,2013-07-20 08:36:00,
2013-07-20 04:41:00,75.8,69.6,29.69,WNW,288,0.0,0.0,81,0.00,,---,0.00,VWS V13.01,2013-07-20 08:41:00,
2013-07-20 04:46:00,75.6,69.4,29.70,WNW,288,0.0,0.0,81,0.00,,---,0.00,VWS V13.01,2013-07-20 08:46:00,
2013-07-20 04:51:00,75.6,69.0,29.70,WNW,284,0.0,1.0,80,0.00,,---,0.00,VWS V13.01,2013-07-20 08:51:00,
2013-07-20 04:56:00,75.8,69.2,29.70,WNW,284,0.0,1.0,80,0.00,,---,0.00,VWS V13.01,2013-07-20 08:56:00,
2013-07-20 05:01:00,75.8,69.2,29.70,WNW,284,0.0,0.0,80,0.00,,---,0.00,VWS V13.01,2013-07-20 09:01:00,
2013-07-20 05:06:00,75.8,69.2,29.70,WNW,285,0.0,2.0,80,0.00,,---,0.00,VWS V13.01,2013-07-20 09:06:00,
2013-07-20 05:11:00,75.8,69.2,29.70,WNW,286,0.0,2.0,80,0.00,,---,0.00,VWS V13.01,2013-07-20 09:11:00,
2013-07-20 05:16:00,75.6,69.0,29.71,WNW,286,0.0,0.0,80,0.00,,---,0.00,VWS V13.01,2013-07-20 09:16:00,
2013-07-20 05:21:00,75.6,69.0,29.71,WNW,286,0.0,1.0,80,0.00,,---,0.00,VWS V13.01,2013-07-20 09:21:00,
2013-07-20 05:26:00,75.6,69.0,29.71,WNW,286,0.0,1.0,80,0.00,,---,0.00,VWS V13.01,2013-07-20 09:26:00,
2013-07-20 05:31:00,75.6,69.4,29.72,WNW,286,0.0,0.0,81,0.00,,---,0.00,VWS V13.01,2013-07-20 09:31:00,
2013-07-20 05:36:00,75.6,69.0,29.72,WNW,286,0.0,0.0,80,0.00,,---,0.00,VWS V13.01,2013-07-20 09:36:00,
2013-07-20 05:41:00,75.6,69.0,29.72,WNW,286,0.0,0.0,80,0.00,,---,0.00,VWS V13.01,2013-07-20 09:41:00,
2013-07-20 05:46:00,75.4,68.8,29.73,WNW,286,0.0,0.0,80,0.00,,---,0.00,VWS V13.01,2013-07-20 09:46:00,
2013-07-20 05:51:00,75.4,68.8,29.73,WNW,286,0.0,0.0,80,0.00,,---,0.00,VWS V13.01,2013-07-20 09:51:00,
2013-07-20 05:56:00,75.4,68.8,29.73,WNW,286,0.0,3.0,80,0.00,,---,0.00,VWS V13.01,2013-07-20 09:56:00,
2013-07-20 06:01:00,75.4,68.8,29.73,WNW,286,0.0,0.0,80,0.00,,---,0.00,VWS V13.01,2013-07-20 10:01:00,
2013-07-20 06:06:00,75.6,69.0,29.73,WNW,286,0.0,5.0,80,0.00,,---,0.00,VWS V13.01,2013-07-20 10:06:00,
2013-07-20 06:11:00,75.6,69.0,29.73,WNW,290,0.0,5.0,80,0.00,,---,0.00,VWS V13.01,2013-07-20 10:11:00,
2013-07-20 06:16:00,75.6,68.6,29.73,WNW,290,0.0,0.0,79,0.00,,---,0.00,VWS V13.01,2013-07-20 10:16:00,
2013-07-20 06:21:00,75.6,68.6,29.73,WNW,290,0.0,3.0,79,0.00,,---,0.00,VWS V13.01,2013-07-20 10:21:00,
2013-07-20 06:26:00,75.6,68.6,29.73,WNW,289,0.0,4.0,79,0.00,,---,0.00,VWS V13.01,2013-07-20 10:26:00,
2013-07-20 06:31:00,75.6,68.6,29.73,WNW,284,0.0,0.0,79,0.00,,---,0.00,VWS V13.01,2013-07-20 10:31:00,
2013-07-20 06:36:00,75.6,69.0,29.73,WNW,284,0.0,0.0,80,0.00,,---,0.00,VWS V13.01,2013-07-20 10:36:00,
2013-07-20 06:41:00,75.8,69.2,29.73,West,275,0.0,4.0,80,0.00,,---,0.00,VWS V13.01,2013-07-20 10:41:00,
2013-07-20 06:46:00,76.0,69.4,29.73,West,275,0.0,0.0,80,0.00,,---,0.00,VWS V13.01,2013-07-20 10:46:00,
2013-07-20 06:51:00,76.1,69.1,29.73,West,275,0.0,0.0,79,0.00,,---,0.00,VWS V13.01,2013-07-20 10:51:00,
2013-07-20 06:56:00,76.3,69.3,29.73,West,275,0.0,0.0,79,0.00,,---,0.00,VWS V13.01,2013-07-20 10:56:00,
2013-07-20 07:01:00,76.5,69.5,29.73,WNW,284,0.0,0.0,79,0.00,,---,0.00,VWS V13.01,2013-07-20 11:01:00,
2013-07-20 07:06:00,76.5,69.5,29.73,WNW,287,0.0,6.0,79,0.00,,---,0.00,VWS V13.01,2013-07-20 11:06:00,
2013-07-20 07:11:00,76.5,69.5,29.73,WNW,290,0.0,6.0,79,0.00,,---,0.00,VWS V13.01,2013-07-20 11:11:00,
2013-07-20 07:16:00,76.7,69.7,29.74,WNW,300,0.0,0.0,79,0.00,,---,0.00,VWS V13.01,2013-07-20 11:16:00,
2013-07-20 07:21:00,76.7,69.7,29.74,WNW,297,0.0,3.0,79,0.00,,---,0.00,VWS V13.01,2013-07-20 11:21:00,
2013-07-20 07:26:00,76.8,69.4,29.74,WNW,286,0.0,6.0,78,0.00,,---,0.00,VWS V13.01,2013-07-20 11:26:00,
2013-07-20 07:31:00,77.0,69.6,29.74,WNW,298,3.0,6.0,78,0.00,,---,0.00,VWS V13.01,2013-07-20 11:31:00,
2013-07-20 07:36:00,77.4,69.6,29.74,WNW,294,0.0,7.0,77,0.00,,---,0.00,VWS V13.01,2013-07-20 11:36:00,
2013-07-20 07:41:00,77.7,69.5,29.74,WNW,292,0.0,7.0,76,0.00,,---,0.00,VWS V13.01,2013-07-20 11:41:00,
2013-07-20 07:46:00,78.1,69.9,29.74,WNW,301,0.0,0.0,76,0.00,,---,0.00,VWS V13.01,2013-07-20 11:46:00,
2013-07-20 07:51:00,78.1,69.9,29.74,WNW,287,0.0,9.0,76,0.00,,---,0.00,VWS V13.01,2013-07-20 11:51:00,
2013-07-20 07:56:00,78.3,70.1,29.74,WNW,293,0.0,9.0,76,0.00,,---,0.00,VWS V13.01,2013-07-20 11:56:00,
2013-07-20 08:01:00,78.5,70.3,29.74,WNW,289,0.0,0.0,76,0.00,,---,0.00,VWS V13.01,2013-07-20 12:01:00,
2013-07-20 08:06:00,78.5,69.9,29.74,SW,227,0.0,4.0,75,0.00,,---,0.00,VWS V13.01,2013-07-20 12:06:00,
2013-07-20 08:11:00,78.5,69.9,29.74,WNW,287,0.0,10.0,75,0.00,,---,0.00,VWS V13.01,2013-07-20 12:11:00,
2013-07-20 08:16:00,78.6,70.4,29.73,WNW,294,0.0,0.0,76,0.00,,---,0.00,VWS V13.01,2013-07-20 12:16:00,
2013-07-20 08:21:00,78.6,70.4,29.73,WSW,257,0.0,0.0,76,0.00,,---,0.00,VWS V13.01,2013-07-20 12:21:00,
2013-07-20 08:26:00,78.6,70.0,29.73,WNW,292,0.0,7.0,75,0.00,,---,0.00,VWS V13.01,2013-07-20 12:26:00,
2013-07-20 08:31:00,78.6,70.4,29.73,West,260,0.0,0.0,76,0.00,,---,0.00,VWS V13.01,2013-07-20 12:31:00,
2013-07-20 08:36:00,78.8,70.2,29.73,West,271,0.0,0.0,75,0.00,,---,0.00,VWS V13.01,2013-07-20 12:36:00,
2013-07-20 08:41:00,79.0,70.8,29.73,West,265,0.0,0.0,76,0.00,,---,0.00,VWS V13.01,2013-07-20 12:41:00,
2013-07-20 08:46:00,79.6,71.0,29.73,West,265,0.0,0.0,75,0.00,,---,0.00,VWS V13.01,2013-07-20 12:46:00,
2013-07-20 08:51:00,79.8,70.4,29.73,WNW,290,0.0,5.0,73,0.00,,---,0.00,VWS V13.01,2013-07-20 12:51:00,
2013-07-20 08:56:00,79.8,70.4,29.73,West,273,0.0,7.0,73,0.00,,---,0.00,VWS V13.01,2013-07-20 12:56:00,
2013-07-20 09:01:00,79.6,71.0,29.73,WNW,284,0.0,0.0,75,0.00,,---,0.00,VWS V13.01,2013-07-20 13:01:00,
2013-07-20 09:06:00,79.6,70.6,29.73,WNW,286,0.0,0.0,74,0.00,,---,0.00,VWS V13.01,2013-07-20 13:06:00,
2013-07-20 09:11:00,79.6,70.6,29.73,WNW,292,0.0,7.0,74,0.00,,---,0.00,VWS V13.01,2013-07-20 13:11:00,
2013-07-20 09:16:00,79.8,70.8,29.73,WNW,284,2.0,2.0,74,0.00,,---,0.00,VWS V13.01,2013-07-20 13:16:00,
2013-07-20 09:21:00,79.9,71.7,29.73,West,281,0.0,7.0,76,0.00,,---,0.00,VWS V13.01,2013-07-20 13:21:00,
2013-07-20 09:26:00,80.1,70.7,29.73,WNW,290,0.0,7.0,73,0.00,,---,0.00,VWS V13.01,2013-07-20 13:26:00,
2013-07-20 09:31:00,80.3,70.5,29.73,West,279,0.0,4.0,72,0.00,,---,0.00,VWS V13.01,2013-07-20 13:31:00,
2013-07-20 09:36:00,80.7,71.2,29.73,WNW,290,0.0,10.0,73,0.00,,---,0.00,VWS V13.01,2013-07-20 13:36:00,
2013-07-20 09:41:00,81.1,70.8,29.73,West,262,7.0,10.0,71,0.00,,---,0.00,VWS V13.01,2013-07-20 13:41:00,
2013-07-20 09:46:00,81.2,70.9,29.73,West,270,11.0,11.0,71,0.00,,---,0.00,VWS V13.01,2013-07-20 13:46:00,
2013-07-20 09:51:00,81.4,71.1,29.73,WNW,300,12.0,12.0,71,0.00,,---,0.00,VWS V13.01,2013-07-20 13:51:00,
2013-07-20 09:56:00,81.8,71.1,29.73,WSW,250,4.0,13.0,70,0.00,,---,0.00,VWS V13.01,2013-07-20 13:56:00,
2013-07-20 10:01:00,82.0,70.8,29.73,WNW,294,0.0,0.0,69,0.00,,---,0.00,VWS V13.01,2013-07-20 14:01:00,
2013-07-20 10:06:00,81.8,71.1,29.73,WNW,292,2.0,10.0,70,0.00,,---,0.00,VWS V13.01,2013-07-20 14:06:00,
2013-07-20 10:11:00,82.0,71.3,29.73,WNW,298,0.0,10.0,70,0.00,,---,0.00,VWS V13.01,2013-07-20 14:11:00,
2013-07-20 10:16:00,82.6,71.4,29.73,West,273,0.0,10.0,69,0.00,,---,0.00,VWS V13.01,2013-07-20 14:16:00,
2013-07-20 10:21:00,83.4,71.3,29.73,West,275,1.0,10.0,67,0.00,,---,0.00,VWS V13.01,2013-07-20 14:21:00,
2013-07-20 10:26:00,83.4,71.3,29.73,West,278,5.0,11.0,67,0.00,,---,0.00,VWS V13.01,2013-07-20 14:26:00,
2013-07-20 10:31:00,83.4,71.3,29.73,West,281,10.0,11.0,67,0.00,,---,0.00,VWS V13.01,2013-07-20 14:31:00,
2013-07-20 10:36:00,83.2,71.1,29.73,WNW,300,4.0,15.0,67,0.00,,---,0.00,VWS V13.01,2013-07-20 14:36:00,
2013-07-20 10:41:00,83.4,71.3,29.73,NW,306,2.0,15.0,67,0.00,,---,0.00,VWS V13.01,2013-07-20 14:41:00,
2013-07-20 10:46:00,83.6,71.5,29.73,WNW,300,5.0,15.0,67,0.00,,---,0.00,VWS V13.01,2013-07-20 14:46:00,
2013-07-20 10:51:00,84.0,71.9,29.73,WNW,296,0.0,11.0,67,0.00,,---,0.00,VWS V13.01,2013-07-20 14:51:00,
2013-07-20 10:56:00,84.1,71.1,29.73,NW,304,7.0,11.0,65,0.00,,---,0.00,VWS V13.01,2013-07-20 14:56:00,
2013-07-20 11:01:00,84.3,72.6,29.72,WNW,293,7.0,11.0,68,0.00,,---,0.00,VWS V13.01,2013-07-20 15:01:00,
2013-07-20 11:06:00,84.7,71.6,29.72,WNW,302,0.0,12.0,65,0.00,,---,0.00,VWS V13.01,2013-07-20 15:06:00,
2013-07-20 11:11:00,84.5,72.3,29.72,West,273,7.0,12.0,67,0.00,,---,0.00,VWS V13.01,2013-07-20 15:11:00,
2013-07-20 11:16:00,84.9,71.4,29.71,WNW,298,1.0,12.0,64,0.00,,---,0.00,VWS V13.01,2013-07-20 15:16:00,
2013-07-20 11:21:00,85.5,71.5,29.71,WNW,290,7.0,11.0,63,0.00,,---,0.00,VWS V13.01,2013-07-20 15:21:00,
2013-07-20 11:26:00,85.5,72.4,29.71,SSW,207,1.0,13.0,65,0.00,,---,0.00,VWS V13.01,2013-07-20 15:26:00,
2013-07-20 11:31:00,85.7,72.1,29.71,WNW,292,5.0,13.0,64,0.00,,---,0.00,VWS V13.01,2013-07-20 15:31:00,
2013-07-20 11:36:00,85.3,71.3,29.71,West,275,4.0,11.0,63,0.00,,---,0.00,VWS V13.01,2013-07-20 15:36:00,
2013-07-20 11:41:00,85.3,72.2,29.71,NW,304,0.0,11.0,65,0.00,,---,0.00,VWS V13.01,2013-07-20 15:41:00,
2013-07-20 11:46:00,85.3,71.8,29.71,WNW,296,4.0,12.0,64,0.00,,---,0.00,VWS V13.01,2013-07-20 15:46:00,
2013-07-20 11:51:00,85.1,72.0,29.71,WNW,294,3.0,7.0,65,0.00,,---,0.00,VWS V13.01,2013-07-20 15:51:00,
2013-07-20 11:56:00,84.9,71.8,29.71,West,277,0.0,11.0,65,0.00,,---,0.00,VWS V13.01,2013-07-20 15:56:00,
2013-07-20 12:01:00,85.5,72.4,29.70,West,278,2.0,11.0,65,0.00,,---,0.00,VWS V13.01,2013-07-20 16:01:00,
2013-07-20 12:06:00,86.3,72.2,29.70,WNW,298,12.0,12.0,63,0.00,,---,0.00,VWS V13.01,2013-07-20 16:06:00,
2013-07-20 12:11:00,86.7,72.6,29.70,SSW,209,0.0,12.0,63,0.00,,---,0.00,VWS V13.01,2013-07-20 16:11:00,
2013-07-20 12:16:00,87.0,72.4,29.69,NW,318,0.0,12.0,62,0.00,,---,0.00,VWS V13.01,2013-07-20 16:16:00,
2013-07-20 12:21:00,86.1,71.6,29.69,West,275,4.0,13.0,62,0.00,,---,0.00,VWS V13.01,2013-07-20 16:21:00,
2013-07-20 12:26:00,86.1,71.6,29.69,WNW,296,3.0,13.0,62,0.00,,---,0.00,VWS V13.01,2013-07-20 16:26:00,
2013-07-20 12:31:00,86.5,71.9,29.69,WNW,301,2.0,13.0,62,0.00,,---,0.00,VWS V13.01,2013-07-20 16:31:00,
2013-07-20 12:36:00,87.0,73.8,29.69,WNW,298,0.0,12.0,65,0.00,,---,0.00,VWS V13.01,2013-07-20 16:36:00,
2013-07-20 12:41:00,86.7,71.2,29.69,WNW,294,7.0,14.0,60,0.00,,---,0.00,VWS V13.01,2013-07-20 16:41:00,
2013-07-20 12:46:00,87.2,73.1,29.68,NW,323,2.0,14.0,63,0.00,,---,0.00,VWS V13.01,2013-07-20 16:46:00,
2013-07-20 12:51:00,87.6,73.0,29.68,SW,215,5.0,15.0,62,0.00,,---,0.00,VWS V13.01,2013-07-20 16:51:00,
2013-07-20 12:56:00,88.2,72.6,29.68,WNW,296,6.0,15.0,60,0.00,,---,0.00,VWS V13.01,2013-07-20 16:56:00,
2013-07-20 13:01:00,88.4,72.3,29.68,South,180,4.0,15.0,59,0.00,,---,0.00,VWS V13.01,2013-07-20 17:01:00,
2013-07-20 13:06:00,88.6,71.9,29.68,WSW,240,4.0,15.0,58,0.00,,---,0.00,VWS V13.01,2013-07-20 17:06:00,
2013-07-20 13:11:00,88.4,72.3,29.68,WNW,300,5.0,16.0,59,0.00,,---,0.00,VWS V13.01,2013-07-20 17:11:00,
2013-07-20 13:16:00,88.4,72.3,29.67,SW,228,2.0,16.0,59,0.00,,---,0.00,VWS V13.01,2013-07-20 17:16:00,
2013-07-20 13:21:00,88.4,72.8,29.67,NNW,345,7.0,11.0,60,0.00,,---,0.00,VWS V13.01,2013-07-20 17:21:00,
2013-07-20 13:26:00,88.8,73.1,29.67,WSW,246,0.0,12.0,60,0.00,,---,0.00,VWS V13.01,2013-07-20 17:26:00,
2013-07-20 13:31:00,89.0,73.8,29.68,WNW,300,5.0,12.0,61,0.00,,---,0.00,VWS V13.01,2013-07-20 17:31:00,
2013-07-20 13:36:00,89.5,73.8,29.68,WNW,287,4.0,14.0,60,0.00,,---,0.00,VWS V13.01,2013-07-20 17:36:00,
2013-07-20 13:41:00,89.3,73.1,29.68,WNW,290,1.0,14.0,59,0.00,,---,0.00,VWS V13.01,2013-07-20 17:41:00,
2013-07-20 13:46:00,89.3,73.1,29.68,WNW,298,5.0,14.0,59,0.00,,---,0.00,VWS V13.01,2013-07-20 17:46:00,
2013-07-20 13:51:00,88.8,72.6,29.68,WNW,296,3.0,13.0,59,0.00,,---,0.00,VWS V13.01,2013-07-20 17:51:00,
2013-07-20 13:56:00,89.3,72.6,29.68,WNW,292,6.0,13.0,58,0.00,,---,0.00,VWS V13.01,2013-07-20 17:56:00,
2013-07-20 14:01:00,88.6,71.9,29.68,WNW,285,13.0,16.0,58,0.00,,---,0.00,VWS V13.01,2013-07-20 18:01:00,
2013-07-20 14:06:00,88.8,72.6,29.68,West,281,6.0,17.0,59,0.00,,---,0.00,VWS V13.01,2013-07-20 18:06:00,
2013-07-20 14:11:00,88.8,72.6,29.68,WNW,292,4.0,17.0,59,0.00,,---,0.00,VWS V13.01,2013-07-20 18:11:00,
2013-07-20 14:16:00,89.0,72.8,29.68,WNW,292,6.0,17.0,59,0.00,,---,0.00,VWS V13.01,2013-07-20 18:16:00,
2013-07-20 14:21:00,89.3,72.6,29.68,West,276,10.0,12.0,58,0.00,,---,0.00,VWS V13.01,2013-07-20 18:21:00,
2013-07-20 14:26:00,89.0,72.3,29.68,West,259,10.0,16.0,58,0.00,,---,0.00,VWS V13.01,2013-07-20 18:26:00,
2013-07-20 14:31:00,89.3,72.6,29.68,WNW,288,5.0,16.0,58,0.00,,---,0.00,VWS V13.01,2013-07-20 18:31:00,
2013-07-20 14:36:00,89.3,72.1,29.68,WNW,301,3.0,12.0,57,0.00,,---,0.00,VWS V13.01,2013-07-20 18:36:00,
2013-07-20 14:41:00,89.9,73.2,29.68,WNW,283,2.0,12.0,58,0.00,,---,0.00,VWS V13.01,2013-07-20 18:41:00,
2013-07-20 14:46:00,90.3,73.0,29.67,West,272,0.0,0.0,57,0.00,,---,0.00,VWS V13.01,2013-07-20 18:46:00,
2013-07-20 14:51:00,90.5,73.2,29.67,WNW,296,4.0,9.0,57,0.00,,---,0.00,VWS V13.01,2013-07-20 18:51:00,
2013-07-20 14:56:00,90.7,72.3,29.67,WNW,294,7.0,14.0,55,0.00,,---,0.00,VWS V13.01,2013-07-20 18:56:00,
2013-07-20 15:01:00,90.5,71.6,29.66,West,276,10.0,10.0,54,0.00,,---,0.00,VWS V13.01,2013-07-20 19:01:00,
2013-07-20 15:06:00,90.3,70.9,29.66,WNW,287,6.0,14.0,53,0.00,,---,0.00,VWS V13.01,2013-07-20 19:06:00,
2013-07-20 15:12:00,90.5,72.1,29.66,West,265,4.0,14.0,55,0.00,,---,0.00,VWS V13.01,2013-07-20 19:12:00,
2013-07-20 15:18:00,91.0,73.1,29.66,WNW,297,7.0,16.0,56,0.00,,---,0.00,VWS V13.01,2013-07-20 19:18:00,
2013-07-20 15:22:00,91.2,72.8,29.66,WNW,298,7.0,16.0,55,0.00,,---,0.00,VWS V13.01,2013-07-20 19:22:00,
2013-07-20 15:28:00,91.2,72.8,29.66,WNW,287,1.0,16.0,55,0.00,,---,0.00,VWS V13.01,2013-07-20 19:28:00,
2013-07-20 15:33:00,90.7,71.8,29.66,NW,308,14.0,18.0,54,0.00,,---,0.00,VWS V13.01,2013-07-20 19:33:00,
2013-07-20 15:38:00,90.1,71.2,29.66,WNW,292,6.0,18.0,54,0.00,,---,0.00,VWS V13.01,2013-07-20 19:38:00,
2013-07-20 15:44:00,90.5,72.1,29.66,NNW,327,4.0,18.0,55,0.00,,---,0.00,VWS V13.01,2013-07-20 19:44:00,
2013-07-20 15:49:00,90.5,72.1,29.66,WNW,294,6.0,11.0,55,0.00,,---,0.00,VWS V13.01,2013-07-20 19:49:00,
2013-07-20 15:55:00,90.3,71.9,29.66,WNW,292,11.0,12.0,55,0.00,,---,0.00,VWS V13.01,2013-07-20 19:55:00,
2013-07-20 16:00:00,90.1,71.2,29.66,NW,323,3.0,12.0,54,0.00,,---,0.00,VWS V13.01,2013-07-20 20:00:00,
2013-07-20 16:05:00,89.9,71.6,29.66,WNW,282,4.0,12.0,55,0.00,,---,0.00,VWS V13.01,2013-07-20 20:05:00,
2013-07-20 16:10:00,89.7,71.9,29.66,NW,304,5.0,14.0,56,0.00,,---,0.00,VWS V13.01,2013-07-20 20:10:00,
2013-07-20 16:15:00,89.5,71.2,29.67,WNW,292,4.0,14.0,55,0.00,,---,0.00,VWS V13.01,2013-07-20 20:15:00,
2013-07-20 16:20:00,89.5,71.7,29.67,West,280,2.0,12.0,56,0.00,,---,0.00,VWS V13.01,2013-07-20 20:20:00,
2013-07-20 16:25:00,89.5,71.2,29.67,WNW,284,11.0,12.0,55,0.00,,---,0.00,VWS V13.01,2013-07-20 20:25:00,
2013-07-20 16:30:00,89.3,72.1,29.66,NW,305,9.0,12.0,57,0.00,,---,0.00,VWS V13.01,2013-07-20 20:30:00,
2013-07-20 16:36:00,89.7,72.4,29.66,WNW,284,5.0,11.0,57,0.00,,---,0.00,VWS V13.01,2013-07-20 20:36:00,
2013-07-20 16:41:00,90.7,72.3,29.66,WNW,295,0.0,11.0,55,0.00,,---,0.00,VWS V13.01,2013-07-20 20:41:00,
2013-07-20 16:46:00,91.2,72.2,29.65,WSW,237,6.0,7.0,54,0.00,,---,0.00,VWS V13.01,2013-07-20 20:46:00,
2013-07-20 16:52:00,91.2,71.7,29.65,WNW,285,6.0,12.0,53,0.00,,---,0.00,VWS V13.01,2013-07-20 20:52:00,
2013-07-20 16:57:00,91.0,72.1,29.65,WNW,286,3.0,12.0,54,0.00,,---,0.00,VWS V13.01,2013-07-20 20:57:00,
2013-07-20 17:02:00,90.7,72.9,29.65,WNW,292,1.0,4.0,56,0.00,,---,0.00,VWS V13.01,2013-07-20 21:02:00,
2013-07-20 17:08:00,90.7,71.8,29.65,NW,322,5.0,13.0,54,0.00,,---,0.00,VWS V13.01,2013-07-20 21:08:00,
2013-07-20 17:13:00,90.5,71.6,29.65,NW,306,11.0,15.0,54,0.00,,---,0.00,VWS V13.01,2013-07-20 21:13:00,
2013-07-20 17:18:00,90.5,72.7,29.65,WNW,284,4.0,9.0,56,0.00,,---,0.00,VWS V13.01,2013-07-20 21:18:00,
2013-07-20 17:23:00,90.5,72.1,29.65,West,276,2.0,12.0,55,0.00,,---,0.00,VWS V13.01,2013-07-20 21:23:00,
2013-07-20 17:29:00,90.5,72.7,29.65,NW,305,9.0,12.0,56,0.00,,---,0.00,VWS V13.01,2013-07-20 21:29:00,
2013-07-20 17:34:00,90.5,73.2,29.65,WNW,302,5.0,10.0,57,0.00,,---,0.00,VWS V13.01,2013-07-20 21:34:00,
2013-07-20 17:39:00,89.9,72.6,29.65,WNW,292,7.0,12.0,57,0.00,,---,0.00,VWS V13.01,2013-07-20 21:39:00,
2013-07-20 17:44:00,89.0,72.3,29.65,WNW,287,2.0,15.0,58,0.00,,---,0.00,VWS V13.01,2013-07-20 21:44:00,
2013-07-20 17:49:00,88.6,72.4,29.65,West,271,6.0,6.0,59,0.00,,---,0.00,VWS V13.01,2013-07-20 21:49:00,
2013-07-20 17:54:00,88.8,72.6,29.65,WNW,286,2.0,7.0,59,0.00,,---,0.00,VWS V13.01,2013-07-20 21:54:00,
2013-07-20 17:59:00,89.3,73.1,29.65,WNW,284,0.0,9.0,59,0.00,,---,0.00,VWS V13.01,2013-07-20 21:59:00,
2013-07-20 18:05:00,89.7,73.5,29.65,WNW,283,3.0,10.0,59,0.00,,---,0.00,VWS V13.01,2013-07-20 22:05:00,
2013-07-20 18:10:00,89.5,72.8,29.65,WNW,291,6.0,13.0,58,0.00,,---,0.00,VWS V13.01,2013-07-20 22:10:00,
2013-07-20 18:15:00,89.0,72.8,29.65,WNW,294,1.0,13.0,59,0.00,,---,0.00,VWS V13.01,2013-07-20 22:15:00,
2013-07-20 18:20:00,88.6,72.4,29.65,West,279,9.0,10.0,59,0.00,,---,0.00,VWS V13.01,2013-07-20 22:20:00,
2013-07-20 18:25:00,88.6,72.4,29.65,SW,229,0.0,10.0,59,0.00,,---,0.00,VWS V13.01,2013-07-20 22:25:00,
2013-07-20 18:30:00,88.6,72.4,29.65,WNW,288,2.0,10.0,59,0.00,,---,0.00,VWS V13.01,2013-07-20 22:30:00,
2013-07-20 18:36:00,88.4,72.3,29.65,WNW,302,0.0,7.0,59,0.00,,---,0.00,VWS V13.01,2013-07-20 22:36:00,
2013-07-20 18:41:00,88.0,72.4,29.65,West,281,0.0,7.0,60,0.00,,---,0.00,VWS V13.01,2013-07-20 22:41:00,
2013-07-20 18:46:00,87.8,72.7,29.67,WNW,284,0.0,7.0,61,0.00,,---,0.00,VWS V13.01,2013-07-20 22:46:00,
2013-07-20 18:51:00,87.0,70.4,29.67,NW,315,0.0,3.0,58,0.00,,---,0.00,VWS V13.01,2013-07-20 22:51:00,
2013-07-20 18:57:00,86.1,69.6,29.67,NW,315,0.0,3.0,58,0.00,,---,0.00,VWS V13.01,2013-07-20 22:57:00,
2013-07-20 19:02:00,85.3,69.4,29.67,NW,315,0.0,0.0,59,0.00,,---,0.00,VWS V13.01,2013-07-20 23:02:00,
2013-07-20 19:07:00,84.9,69.5,29.67,NW,315,0.0,0.0,60,0.00,,---,0.00,VWS V13.01,2013-07-20 23:07:00,
2013-07-20 19:12:00,84.5,69.1,29.67,NW,315,0.0,0.0,60,0.00,,---,0.00,VWS V13.01,2013-07-20 23:12:00,
2013-07-20 19:17:00,84.3,69.9,29.67,NW,315,0.0,0.0,62,0.00,,---,0.00,VWS V13.01,2013-07-20 23:17:00,
2013-07-20 19:22:00,84.0,69.6,29.67,NW,326,5.0,5.0,62,0.00,,---,0.00,VWS V13.01,2013-07-20 23:22:00,
2013-07-20 19:27:00,83.4,69.5,29.67,North,9,1.0,6.0,63,0.00,,---,0.00,VWS V13.01,2013-07-20 23:27:00,
2013-07-20 19:32:00,83.0,70.0,29.70,NNW,346,4.0,7.0,65,0.00,,---,0.00,VWS V13.01,2013-07-20 23:32:00,
2013-07-20 19:37:00,82.2,69.7,29.70,North,355,4.0,10.0,66,0.00,,---,0.00,VWS V13.01,2013-07-20 23:37:00,
2013-07-20 19:43:00,81.6,69.6,29.70,NNW,336,2.0,10.0,67,0.00,,---,0.00,VWS V13.01,2013-07-20 23:43:00,
2013-07-20 19:48:00,81.2,69.6,29.70,NNW,340,0.0,0.0,68,0.00,,---,0.00,VWS V13.01,2013-07-20 23:48:00,
2013-07-20 19:53:00,81.1,70.0,29.70,NNW,340,0.0,0.0,69,0.00,,---,0.00,VWS V13.01,2013-07-20 23:53:00,
2013-07-20 19:58:00,80.9,69.8,29.70,NNW,340,0.0,0.0,69,0.00,,---,0.00,VWS V13.01,2013-07-20 23:58:00,
2013-07-20 20:04:00,80.7,69.6,29.70,NNW,340,0.0,0.0,69,0.00,,---,0.00,VWS V13.01,2013-07-21 00:04:00,
2013-07-20 20:09:00,80.5,69.8,29.70,NNW,343,0.0,7.0,70,0.00,,---,0.00,VWS V13.01,2013-07-21 00:09:00,
2013-07-20 20:14:00,80.3,70.1,29.70,NNE,19,5.0,10.0,71,0.00,,---,0.00,VWS V13.01,2013-07-21 00:14:00,
2013-07-20 20:19:00,80.1,69.9,29.72,North,355,1.0,13.0,71,0.00,,---,0.00,VWS V13.01,2013-07-21 00:19:00,
2013-07-20 20:24:00,79.9,70.1,29.72,NNW,344,0.0,13.0,72,0.00,,---,0.00,VWS V13.01,2013-07-21 00:24:00,
2013-07-20 20:30:00,79.6,70.2,29.72,North,355,0.0,13.0,73,0.00,,---,0.00,VWS V13.01,2013-07-21 00:30:00,
2013-07-20 20:35:00,79.4,70.0,29.71,NNW,344,2.0,5.0,73,0.00,,---,0.00,VWS V13.01,2013-07-21 00:35:00,
2013-07-20 20:41:00,79.2,69.8,29.71,NNW,344,0.0,5.0,73,0.00,,---,0.00,VWS V13.01,2013-07-21 00:41:00,
2013-07-20 20:46:00,79.0,69.6,29.72,NNW,344,0.0,5.0,73,0.00,,---,0.00,VWS V13.01,2013-07-21 00:46:00,
2013-07-20 20:51:00,78.8,69.8,29.72,NNW,344,0.0,0.0,74,0.00,,---,0.00,VWS V13.01,2013-07-21 00:51:00,
2013-07-20 20:56:00,78.8,69.8,29.72,NNW,344,0.0,0.0,74,0.00,,---,0.00,VWS V13.01,2013-07-21 00:56:00,
2013-07-20 21:01:00,78.6,69.6,29.73,NNW,344,0.0,0.0,74,0.00,,---,0.00,VWS V13.01,2013-07-21 01:01:00,
2013-07-20 21:07:00,78.8,70.2,29.73,NNW,344,0.0,0.0,75,0.00,,---,0.00,VWS V13.01,2013-07-21 01:07:00,
2013-07-20 21:12:00,78.6,70.4,29.73,NNW,344,0.0,0.0,76,0.00,,---,0.00,VWS V13.01,2013-07-21 01:12:00,
2013-07-20 21:18:00,78.6,70.8,29.72,NNW,344,0.0,0.0,77,0.00,,---,0.00,VWS V13.01,2013-07-21 01:18:00,
2013-07-20 21:23:00,78.5,70.7,29.72,NNW,344,0.0,0.0,77,0.00,,---,0.00,VWS V13.01,2013-07-21 01:23:00,
2013-07-20 21:28:00,78.3,70.5,29.72,NNW,344,0.0,0.0,77,0.00,,---,0.00,VWS V13.01,2013-07-21 01:28:00,
2013-07-20 21:33:00,78.1,70.3,29.72,NNW,344,0.0,0.0,77,0.00,,---,0.00,VWS V13.01,2013-07-21 01:33:00,
2013-07-20 21:38:00,78.1,70.3,29.72,NNW,344,0.0,0.0,77,0.00,,---,0.00,VWS V13.01,2013-07-21 01:38:00,
2013-07-20 21:43:00,78.1,70.3,29.72,NNW,344,0.0,0.0,77,0.00,,---,0.00,VWS V13.01,2013-07-21 01:43:00,
2013-07-20 21:48:00,78.1,70.3,29.73,NNW,344,0.0,0.0,77,0.00,,---,0.00,VWS V13.01,2013-07-21 01:48:00,
2013-07-20 21:53:00,77.9,70.1,29.73,NNW,344,0.0,0.0,77,0.00,,---,0.00,VWS V13.01,2013-07-21 01:53:00,
2013-07-20 21:58:00,78.1,70.3,29.73,NNW,344,0.0,0.0,77,0.00,,---,0.00,VWS V13.01,2013-07-21 01:58:00,
2013-07-20 22:03:00,78.1,69.9,29.73,NNW,344,0.0,0.0,76,0.00,,---,0.00,VWS V13.01,2013-07-21 02:03:00,
2013-07-20 22:09:00,78.3,70.5,29.73,NNW,344,0.0,0.0,77,0.00,,---,0.00,VWS V13.01,2013-07-21 02:09:00,
2013-07-20 22:14:00,78.3,70.5,29.73,NNW,344,0.0,0.0,77,0.00,,---,0.00,VWS V13.01,2013-07-21 02:14:00,
2013-07-20 22:19:00,78.1,70.7,29.73,NNW,344,0.0,0.0,78,0.00,,---,0.00,VWS V13.01,2013-07-21 02:19:00,
2013-07-20 22:24:00,77.9,70.9,29.73,NNW,344,0.0,0.0,79,0.00,,---,0.00,VWS V13.01,2013-07-21 02:24:00,
2013-07-20 22:29:00,77.7,70.7,29.73,NNW,344,0.0,0.0,79,0.00,,---,0.00,VWS V13.01,2013-07-21 02:29:00,
2013-07-20 22:34:00,77.6,70.6,29.72,NNW,344,0.0,0.0,79,0.00,,---,0.00,VWS V13.01,2013-07-21 02:34:00,
2013-07-20 22:39:00,77.6,70.6,29.72,NNW,344,0.0,0.0,79,0.00,,---,0.00,VWS V13.01,2013-07-21 02:39:00,
2013-07-20 22:44:00,77.6,70.2,29.72,NNW,344,0.0,0.0,78,0.00,,---,0.00,VWS V13.01,2013-07-21 02:44:00,
2013-07-20 22:50:00,77.6,69.8,29.73,NNW,344,0.0,0.0,77,0.00,,---,0.00,VWS V13.01,2013-07-21 02:50:00,
2013-07-20 22:55:00,77.6,69.8,29.73,NNW,344,0.0,0.0,77,0.00,,---,0.00,VWS V13.01,2013-07-21 02:55:00,
2013-07-20 23:00:00,77.7,69.5,29.73,NNW,344,0.0,3.0,76,0.00,,---,0.00,VWS V13.01,2013-07-21 03:00:00,
2013-07-20 23:05:00,77.9,69.3,29.73,NNW,344,0.0,0.0,75,0.00,,---,0.00,VWS V13.01,2013-07-21 03:05:00,
2013-07-20 23:10:00,77.9,69.7,29.73,NNW,344,0.0,0.0,76,0.00,,---,0.00,VWS V13.01,2013-07-21 03:10:00,
2013-07-20 23:15:00,77.9,69.7,29.75,NNW,344,0.0,0.0,76,0.00,,---,0.00,VWS V13.01,2013-07-21 03:15:00,
2013-07-20 23:20:00,77.9,69.7,29.75,NNW,344,0.0,5.0,76,0.00,,---,0.00,VWS V13.01,2013-07-21 03:20:00,
2013-07-20 23:25:00,77.9,69.7,29.75,NNW,344,0.0,5.0,76,0.00,,---,0.00,VWS V13.01,2013-07-21 03:25:00,
2013-07-20 23:31:00,77.9,69.7,29.75,NNW,343,0.0,5.0,76,0.00,,---,0.00,VWS V13.01,2013-07-21 03:31:00,
2013-07-20 23:36:00,77.9,70.1,29.75,NNW,343,0.0,0.0,77,0.00,,---,0.00,VWS V13.01,2013-07-21 03:36:00,
2013-07-20 23:41:00,77.7,69.9,29.75,NNW,343,0.0,0.0,77,0.00,,---,0.00,VWS V13.01,2013-07-21 03:41:00,
2013-07-20 23:47:00,77.6,69.8,29.75,NNW,343,0.0,0.0,77,0.00,,---,0.00,VWS V13.01,2013-07-21 03:47:00,
2013-07-20 23:52:00,77.4,69.6,29.75,SSW,192,0.0,6.0,77,0.00,,---,0.00,VWS V13.01,2013-07-21 03:52:00,
2013-07-20 23:58:00,77.2,70.2,29.75,SSW,192,0.0,6.0,79,0.00,,---,0.00,VWS V13.01,2013-07-21 03:58:00,